createdAt,value
2022-11-28T00:01:16.042Z,8.30
2022-11-28T00:04:58.118Z,8.20
2022-11-28T00:08:40.395Z,8.20
2022-11-28T00:12:22.347Z,8.20
2022-11-28T00:16:07.494Z,8.30
2022-11-28T00:19:49.507Z,8.30
2022-11-28T00:23:36.421Z,8.30
2022-11-28T00:27:18.337Z,8.30
2022-11-28T00:31:00.666Z,8.30
2022-11-28T00:34:42.763Z,8.30
2022-11-28T00:38:24.821Z,8.30
2022-11-28T00:42:06.716Z,8.30
2022-11-28T00:45:48.691Z,8.20
2022-11-28T00:49:30.654Z,8.20
2022-11-28T00:53:12.586Z,8.20
2022-11-28T00:56:54.649Z,8.20
2022-11-28T01:00:37.720Z,8.20
2022-11-28T01:04:19.624Z,8.20
2022-11-28T01:08:01.497Z,8.20
2022-11-28T01:11:44.110Z,8.10
2022-11-28T01:15:26.353Z,8.10
2022-11-28T01:19:08.474Z,8.10
2022-11-28T01:22:50.344Z,8.10
2022-11-28T01:26:32.514Z,8.10
2022-11-28T01:30:14.539Z,8.00
2022-11-28T01:33:56.707Z,8.00
2022-11-28T01:37:38.638Z,7.90
2022-11-28T01:41:23.626Z,7.90
2022-11-28T01:45:21.766Z,7.90
2022-11-28T01:49:13.527Z,7.90
2022-11-28T01:52:58.827Z,7.90
2022-11-28T01:56:47.322Z,7.90
2022-11-28T02:00:29.376Z,7.90
2022-11-28T02:04:13.745Z,7.90
2022-11-28T02:07:55.790Z,7.90
2022-11-28T02:11:57.119Z,7.80
2022-11-28T02:15:41.757Z,7.80
2022-11-28T02:20:08.177Z,7.80
2022-11-28T02:23:58.865Z,7.80
2022-11-28T02:28:22.339Z,7.80
2022-11-28T02:32:28.878Z,7.80
2022-11-28T02:36:15.981Z,7.90
2022-11-28T02:40:25.402Z,7.90
2022-11-28T02:44:25.514Z,7.90
2022-11-28T02:48:22.354Z,7.90
2022-11-28T02:52:13.509Z,7.90
2022-11-28T02:55:57.755Z,7.90
2022-11-28T02:59:39.563Z,8.00
2022-11-28T03:03:43.324Z,8.00
2022-11-28T03:07:59.366Z,8.00
2022-11-28T03:12:13.937Z,8.10
2022-11-28T03:16:27.301Z,8.20
2022-11-28T03:20:12.260Z,8.20
2022-11-28T03:24:20.073Z,8.30
2022-11-28T03:28:28.698Z,8.30
2022-11-28T03:32:14.763Z,8.30
2022-11-28T03:36:27.579Z,8.30
2022-11-28T03:40:15.684Z,8.30
2022-11-28T03:43:58.415Z,8.30
2022-11-28T03:47:45.848Z,8.30
2022-11-28T03:51:38.243Z,8.30
2022-11-28T03:55:31.003Z,8.30
2022-11-28T03:59:23.999Z,8.20
2022-11-28T04:03:52.821Z,8.20
2022-11-28T04:07:44.524Z,8.20
2022-11-28T04:11:36.590Z,8.20
2022-11-28T04:15:21.652Z,8.20
2022-11-28T04:19:12.740Z,8.20
2022-11-28T04:22:59.594Z,8.10
2022-11-28T04:26:53.980Z,8.10
2022-11-28T04:30:38.399Z,8.10
2022-11-28T04:34:21.158Z,8.10
2022-11-28T04:38:05.500Z,8.10
2022-11-28T04:42:12.056Z,8.10
2022-11-28T04:46:00.645Z,8.10
2022-11-28T04:49:42.776Z,8.10
2022-11-28T04:53:36.869Z,8.10
2022-11-28T04:57:25.447Z,8.10
2022-11-28T05:01:10.288Z,8.10
2022-11-28T05:04:55.601Z,8.20
2022-11-28T05:08:37.576Z,8.10
2022-11-28T05:12:19.718Z,8.20
2022-11-28T05:16:03.491Z,8.10
2022-11-28T05:19:45.430Z,8.10
2022-11-28T05:23:27.384Z,8.10
2022-11-28T05:27:11.446Z,8.10
2022-11-28T05:31:01.414Z,8.00
2022-11-28T05:34:43.438Z,8.00
2022-11-28T05:38:25.662Z,7.90
2022-11-28T05:42:07.530Z,7.90
2022-11-28T05:45:49.464Z,7.90
2022-11-28T05:49:31.362Z,7.80
2022-11-28T05:53:13.502Z,7.80
2022-11-28T05:56:55.402Z,7.80
2022-11-28T06:00:37.804Z,7.80
2022-11-28T06:04:19.708Z,7.70
2022-11-28T06:08:01.630Z,7.70
2022-11-28T06:11:43.602Z,7.70
2022-11-28T06:15:25.510Z,7.70
2022-11-28T06:19:07.448Z,7.70
2022-11-28T06:22:49.603Z,7.70
2022-11-28T06:26:31.517Z,7.70
2022-11-28T06:30:13.991Z,7.70
2022-11-28T06:33:56.815Z,7.70
2022-11-28T06:37:38.737Z,7.80
2022-11-28T06:41:22.762Z,7.80
2022-11-28T06:45:05.706Z,7.80
2022-11-28T06:48:49.011Z,7.80
2022-11-28T06:52:30.940Z,7.70
2022-11-28T06:56:15.908Z,7.70
2022-11-28T06:59:57.777Z,7.70
2022-11-28T07:03:40.756Z,7.60
2022-11-28T07:07:22.784Z,7.60
2022-11-28T07:11:16.746Z,7.60
2022-11-28T07:14:58.616Z,7.60
2022-11-28T07:18:40.535Z,7.50
2022-11-28T07:22:23.179Z,7.50
2022-11-28T07:26:06.043Z,7.50
2022-11-28T07:29:47.915Z,7.50
2022-11-28T07:33:30.180Z,7.50
2022-11-28T07:37:13.219Z,7.50
2022-11-28T07:40:55.079Z,7.40
2022-11-28T07:44:37.126Z,7.50
2022-11-28T07:48:19.047Z,7.50
2022-11-28T07:52:01.532Z,7.50
2022-11-28T07:55:43.438Z,7.50
2022-11-28T07:59:25.348Z,7.50
2022-11-28T08:03:07.253Z,7.50
2022-11-28T08:06:49.170Z,7.50
2022-11-28T08:10:31.072Z,7.60
2022-11-28T08:14:14.239Z,7.60
2022-11-28T08:17:56.097Z,7.60
2022-11-28T08:21:38.104Z,7.60
2022-11-28T08:25:20.002Z,7.60
2022-11-28T08:29:03.019Z,7.60
2022-11-28T08:32:44.940Z,7.60
2022-11-28T08:36:29.212Z,7.70
2022-11-28T08:40:11.670Z,7.70
2022-11-28T08:43:53.810Z,7.70
2022-11-28T08:47:35.736Z,7.80
2022-11-28T08:51:20.931Z,7.80
2022-11-28T08:55:02.831Z,7.80
2022-11-28T08:58:44.833Z,7.80
2022-11-28T09:02:26.754Z,7.80
2022-11-28T09:06:09.107Z,7.80
2022-11-28T09:09:50.980Z,7.80
2022-11-28T09:13:33.130Z,7.80
2022-11-28T09:17:17.749Z,7.80
2022-11-28T09:21:05.401Z,7.70
2022-11-28T09:24:47.302Z,7.70
2022-11-28T09:28:29.277Z,7.70
2022-11-28T09:32:11.322Z,7.70
2022-11-28T09:35:55.493Z,7.70
2022-11-28T09:39:50.563Z,7.80
2022-11-28T09:43:43.908Z,7.90
2022-11-28T09:47:29.538Z,7.90
2022-11-28T09:51:36.162Z,7.90
2022-11-28T09:55:20.879Z,7.90
2022-11-28T09:59:04.173Z,7.90
2022-11-28T10:03:06.993Z,7.90
2022-11-28T10:07:06.955Z,8.00
2022-11-28T10:11:04.222Z,8.00
2022-11-28T10:15:02.682Z,8.10
2022-11-28T10:18:48.758Z,8.20
2022-11-28T10:22:44.511Z,8.30
2022-11-28T10:26:26.362Z,8.30
2022-11-28T10:30:16.532Z,8.40
2022-11-28T10:34:19.827Z,8.50
2022-11-28T10:38:01.982Z,8.70
2022-11-28T10:42:11.704Z,8.80
2022-11-28T10:46:15.434Z,8.90
2022-11-28T10:50:04.049Z,9.10
2022-11-28T10:53:57.847Z,9.20
2022-11-28T10:58:05.334Z,9.40
2022-11-28T11:01:50.612Z,9.50
2022-11-28T11:05:35.410Z,9.70
2022-11-28T11:09:17.299Z,9.90
2022-11-28T11:12:59.648Z,10.10
2022-11-28T11:16:53.343Z,10.30
2022-11-28T11:20:38.968Z,10.40
2022-11-28T11:24:21.104Z,10.50
2022-11-28T11:28:04.939Z,10.70
2022-11-28T11:31:52.498Z,10.80
2022-11-28T11:35:44.083Z,11.00
2022-11-28T11:39:26.076Z,11.10
2022-11-28T11:43:33.227Z,11.30
2022-11-28T11:47:15.607Z,11.40
2022-11-28T11:50:57.458Z,11.60
2022-11-28T11:54:54.309Z,11.80
2022-11-28T11:58:51.318Z,11.90
2022-11-28T12:03:02.011Z,12.00
2022-11-28T12:06:50.572Z,12.10
2022-11-28T12:10:37.855Z,12.10
2022-11-28T12:14:28.616Z,12.00
2022-11-28T12:18:29.037Z,12.10
2022-11-28T12:22:33.395Z,12.30
2022-11-28T12:26:33.451Z,12.50
2022-11-28T12:30:26.696Z,12.70
2022-11-28T12:34:35.651Z,12.80
2022-11-28T12:38:36.538Z,12.90
2022-11-28T12:42:47.807Z,12.90
2022-11-28T12:47:08.057Z,13.00
2022-11-28T12:51:02.199Z,13.20
2022-11-28T12:55:18.006Z,13.30
2022-11-28T12:59:26.053Z,13.00
2022-11-28T13:03:35.408Z,12.80
2022-11-28T13:07:41.411Z,12.60
2022-11-28T13:11:45.165Z,12.40
2022-11-28T13:16:05.432Z,12.40
2022-11-28T13:20:02.909Z,12.30
2022-11-28T13:23:52.832Z,12.70
2022-11-28T13:27:47.943Z,12.90
2022-11-28T13:31:38.310Z,12.80
2022-11-28T13:35:21.288Z,13.10
2022-11-28T13:39:21.045Z,13.60
2022-11-28T13:43:21.959Z,14.10
2022-11-28T13:47:14.869Z,14.30
2022-11-28T13:51:06.646Z,14.30
2022-11-28T13:54:55.310Z,14.00
2022-11-28T13:58:57.532Z,13.90
2022-11-28T14:02:39.425Z,13.70
2022-11-28T14:06:23.787Z,13.50
2022-11-28T14:10:39.484Z,13.40
2022-11-28T14:14:42.897Z,13.20
2022-11-28T14:18:57.798Z,13.00
2022-11-28T14:23:01.673Z,12.80
2022-11-28T14:26:44.616Z,12.60
2022-11-28T14:30:39.216Z,12.30
2022-11-28T14:34:41.355Z,12.00
2022-11-28T14:38:35.502Z,11.80
2022-11-28T14:42:43.874Z,11.60
2022-11-28T14:46:31.204Z,11.40
2022-11-28T14:50:13.642Z,11.20
2022-11-28T14:53:56.190Z,11.10
2022-11-28T14:57:55.580Z,11.00
2022-11-28T15:01:50.626Z,10.90
2022-11-28T15:05:46.531Z,10.90
2022-11-28T15:09:42.814Z,10.90
2022-11-28T15:13:51.605Z,10.90
2022-11-28T15:17:34.169Z,10.80
2022-11-28T15:21:18.170Z,10.80
2022-11-28T15:25:00.531Z,10.70
2022-11-28T15:28:43.612Z,10.60
2022-11-28T15:32:31.165Z,10.60
2022-11-28T15:36:29.594Z,10.60
2022-11-28T15:40:17.171Z,10.40
2022-11-28T15:43:59.150Z,10.40
2022-11-28T15:47:41.193Z,10.30
2022-11-28T15:51:29.395Z,10.30
2022-11-28T15:55:18.272Z,10.20
2022-11-28T15:59:00.172Z,10.10
2022-11-28T16:02:44.283Z,10.00
2022-11-28T16:06:30.621Z,9.90
2022-11-28T16:10:18.847Z,9.90
2022-11-28T16:14:08.810Z,9.80
2022-11-28T16:17:53.471Z,9.80
2022-11-28T16:21:53.758Z,9.70
2022-11-28T16:25:36.004Z,9.60
2022-11-28T16:29:17.877Z,9.50
2022-11-28T16:33:00.218Z,9.40
2022-11-28T16:36:49.807Z,9.40
2022-11-28T16:40:32.458Z,9.30
2022-11-28T16:44:18.706Z,9.30
2022-11-28T16:48:15.873Z,9.20
2022-11-28T16:52:21.072Z,9.10
2022-11-28T16:56:02.968Z,9.00
2022-11-28T16:59:45.660Z,8.90
2022-11-28T17:03:44.190Z,8.90
2022-11-28T17:07:26.150Z,8.90
2022-11-28T17:11:08.130Z,8.90
2022-11-28T17:14:50.050Z,8.80
2022-11-28T17:18:31.942Z,8.80
2022-11-28T17:22:17.179Z,8.70
2022-11-28T17:25:59.067Z,8.70
2022-11-28T17:29:41.507Z,8.60
2022-11-28T17:33:23.579Z,8.50
2022-11-28T17:37:05.819Z,8.50
2022-11-28T17:40:47.752Z,8.40
2022-11-28T17:44:35.161Z,8.40
2022-11-28T17:48:18.080Z,8.40
2022-11-28T17:52:00.047Z,8.40
2022-11-28T17:55:42.704Z,8.40
2022-11-28T17:59:24.985Z,8.30
2022-11-28T18:03:07.702Z,8.30
2022-11-28T18:06:49.590Z,8.30
2022-11-28T18:10:31.621Z,8.30
2022-11-28T18:14:14.022Z,8.30
2022-11-28T18:17:58.682Z,8.30
2022-11-28T18:21:40.542Z,8.20
2022-11-28T18:25:22.843Z,8.20
2022-11-28T18:29:05.137Z,8.20
2022-11-28T18:32:47.124Z,8.20
2022-11-28T18:36:30.830Z,8.20
2022-11-28T18:40:13.292Z,8.20
2022-11-28T18:43:59.708Z,8.20
2022-11-28T18:47:41.722Z,8.10
2022-11-28T18:51:31.965Z,8.10
2022-11-28T18:55:14.061Z,8.10
2022-11-28T18:58:57.415Z,8.00
2022-11-28T19:02:39.371Z,8.00
2022-11-28T19:06:22.409Z,7.90
2022-11-28T19:10:04.624Z,7.80
2022-11-28T19:13:47.798Z,7.80
2022-11-28T19:17:29.832Z,7.70
2022-11-28T19:21:15.181Z,7.70
2022-11-28T19:24:57.067Z,7.60
2022-11-28T19:28:40.395Z,7.60
2022-11-28T19:32:22.267Z,7.50
2022-11-28T19:36:05.828Z,7.40
2022-11-28T19:39:47.815Z,7.30
2022-11-28T19:43:29.663Z,7.30
2022-11-28T19:47:11.903Z,7.30
2022-11-28T19:50:53.937Z,7.20
2022-11-28T19:54:37.182Z,7.30
2022-11-28T19:58:19.133Z,7.30
2022-11-28T20:02:02.738Z,7.30
2022-11-28T20:05:44.688Z,7.30
2022-11-28T20:09:26.599Z,7.30
2022-11-28T20:13:08.483Z,7.30
2022-11-28T20:16:50.468Z,7.20
2022-11-28T20:20:34.109Z,7.10
2022-11-28T20:24:16.347Z,7.10
2022-11-28T20:27:58.238Z,7.10
2022-11-28T20:31:45.494Z,7.00
2022-11-28T20:35:28.242Z,7.00
2022-11-28T20:39:11.604Z,6.90
2022-11-28T20:42:53.959Z,6.90
2022-11-28T20:46:36.347Z,6.80
2022-11-28T20:50:18.236Z,6.80
2022-11-28T20:54:00.936Z,6.80
2022-11-28T20:57:42.814Z,6.80
2022-11-28T21:01:27.549Z,6.80
2022-11-28T21:05:09.701Z,6.80
2022-11-28T21:08:52.078Z,6.80
2022-11-28T21:12:34.128Z,6.80
2022-11-28T21:16:21.822Z,6.80
2022-11-28T21:20:04.782Z,6.80
2022-11-28T21:23:46.928Z,6.80
2022-11-28T21:27:28.770Z,6.70
2022-11-28T21:31:16.920Z,6.70
2022-11-28T21:35:04.189Z,6.60
2022-11-28T21:38:50.972Z,6.60
2022-11-28T21:42:32.833Z,6.60
2022-11-28T21:46:15.441Z,6.60
2022-11-28T21:49:57.349Z,6.60
2022-11-28T21:53:39.228Z,6.50
2022-11-28T21:57:21.087Z,6.50
2022-11-28T22:01:06.559Z,6.50
2022-11-28T22:04:48.536Z,6.50
2022-11-28T22:08:30.595Z,6.40
2022-11-28T22:12:12.451Z,6.40
2022-11-28T22:15:54.567Z,6.40
2022-11-28T22:19:36.585Z,6.40
2022-11-28T22:23:18.817Z,6.50
2022-11-28T22:27:00.804Z,6.40
2022-11-28T22:30:42.725Z,6.50
2022-11-28T22:34:24.999Z,6.50
2022-11-28T22:38:06.978Z,6.50
2022-11-28T22:41:48.997Z,6.50
2022-11-28T22:45:30.997Z,6.50
2022-11-28T22:49:13.053Z,6.50
2022-11-28T22:52:54.912Z,6.50
2022-11-28T22:56:37.461Z,6.50
2022-11-28T23:00:19.992Z,6.50
2022-11-28T23:04:02.079Z,6.40
2022-11-28T23:07:44.029Z,6.40
2022-11-28T23:11:27.890Z,6.40
2022-11-28T23:15:10.491Z,6.30
2022-11-28T23:18:55.034Z,6.20
2022-11-28T23:22:36.992Z,6.20
2022-11-28T23:26:22.404Z,6.10
2022-11-28T23:30:05.176Z,6.10
2022-11-28T23:33:47.496Z,6.10
2022-11-28T23:37:29.396Z,6.10
2022-11-28T23:41:12.013Z,6.10
2022-11-28T23:44:53.864Z,6.10
2022-11-28T23:48:36.419Z,6.10
2022-11-28T23:52:18.246Z,6.00
2022-11-28T23:56:11.722Z,6.00
2022-11-28T23:59:53.580Z,5.90
